createdAt,value
2022-11-21T00:00:35.343Z,17.73
2022-11-21T00:04:11.192Z,18.17
2022-11-21T00:07:59.814Z,18.40
2022-11-21T00:11:47.487Z,17.73
2022-11-21T00:15:23.428Z,16.70
2022-11-21T00:19:04.309Z,17.10
2022-11-21T00:23:04.051Z,17.47
2022-11-21T00:30:31.134Z,16.07
2022-11-21T00:37:53.409Z,16.73
2022-11-21T00:45:41.685Z,17.83
2022-11-21T00:49:27.282Z,17.20
2022-11-21T00:53:08.474Z,16.90
2022-11-21T00:56:45.403Z,15.70
2022-11-21T01:00:43.386Z,15.53
2022-11-21T01:04:41.409Z,17.63
2022-11-21T01:08:34.000Z,17.43
2022-11-21T01:16:25.217Z,17.17
2022-11-21T01:20:17.456Z,16.87
2022-11-21T01:23:52.091Z,17.07
2022-11-21T01:27:37.153Z,15.53
2022-11-21T01:31:49.596Z,16.93
2022-11-21T01:35:19.821Z,15.67
2022-11-21T01:39:18.616Z,17.83
2022-11-21T01:43:01.235Z,15.70
2022-11-21T01:46:47.557Z,16.27
2022-11-21T01:50:30.963Z,16.67
2022-11-21T01:54:06.848Z,16.53
2022-11-21T01:57:59.490Z,15.97
2022-11-21T02:01:44.677Z,16.03
2022-11-21T02:05:06.528Z,16.97
2022-11-21T02:13:17.215Z,17.93
2022-11-21T02:17:06.082Z,16.80
2022-11-21T02:20:41.635Z,16.93
2022-11-21T02:24:45.046Z,17.83
2022-11-21T02:28:42.804Z,16.40
2022-11-21T02:32:22.060Z,16.93
2022-11-21T02:36:02.328Z,15.67
2022-11-21T02:44:59.827Z,15.80
2022-11-21T02:48:50.839Z,15.70
2022-11-21T02:52:45.933Z,15.03
2022-11-21T02:56:22.637Z,14.67
2022-11-21T03:00:03.208Z,14.47
2022-11-21T03:04:30.525Z,14.90
2022-11-21T03:08:22.619Z,15.10
2022-11-21T03:11:58.992Z,13.97
2022-11-21T03:16:19.349Z,14.63
2022-11-21T03:20:14.527Z,15.23
2022-11-21T03:24:07.678Z,15.03
2022-11-21T03:27:36.181Z,15.17
2022-11-21T03:31:34.149Z,13.87
2022-11-21T03:35:20.250Z,14.77
2022-11-21T03:38:57.135Z,14.00
2022-11-21T03:46:54.691Z,14.80
2022-11-21T03:50:41.261Z,14.30
2022-11-21T03:54:28.468Z,13.97
2022-11-21T03:58:00.987Z,15.40
2022-11-21T04:01:59.400Z,13.70
2022-11-21T04:05:53.846Z,12.87
2022-11-21T04:13:10.013Z,13.20
2022-11-21T04:16:49.210Z,13.27
2022-11-21T04:20:55.988Z,12.97
2022-11-21T04:24:39.026Z,12.63
2022-11-21T04:29:29.228Z,13.23
2022-11-21T04:33:39.945Z,12.03
2022-11-21T04:37:31.432Z,11.40
2022-11-21T04:41:38.224Z,12.37
2022-11-21T04:45:35.998Z,12.63
2022-11-21T04:49:13.805Z,13.43
2022-11-21T04:53:45.784Z,13.00
2022-11-21T04:57:37.022Z,13.37
2022-11-21T05:01:29.800Z,13.20
2022-11-21T05:05:33.990Z,12.33
2022-11-21T05:09:30.385Z,14.13
2022-11-21T05:13:27.900Z,13.63
2022-11-21T05:17:40.766Z,14.30
2022-11-21T05:29:26.660Z,13.87
2022-11-21T05:33:13.474Z,13.97
2022-11-21T05:37:02.673Z,14.17
2022-11-21T05:40:26.862Z,14.27
2022-11-21T05:44:00.368Z,15.13
2022-11-21T05:47:29.871Z,16.50
2022-11-21T05:51:14.963Z,16.30
2022-11-21T05:54:36.255Z,21.03
2022-11-21T05:58:03.441Z,17.53
2022-11-21T06:02:00.395Z,14.67
2022-11-21T06:05:26.404Z,26.30
2022-11-21T06:08:49.822Z,26.40
2022-11-21T06:12:44.402Z,20.80
2022-11-21T06:16:10.398Z,17.77
2022-11-21T06:19:33.484Z,15.53
2022-11-21T06:23:15.744Z,15.77
2022-11-21T06:26:49.067Z,13.43
2022-11-21T06:29:54.938Z,16.53
2022-11-21T06:32:58.664Z,15.10
2022-11-21T06:36:04.454Z,16.43
2022-11-21T06:39:08.074Z,15.70
2022-11-21T06:42:11.650Z,16.40
2022-11-21T06:45:33.076Z,15.47
2022-11-21T06:48:38.463Z,16.40
2022-11-21T06:51:42.097Z,17.63
2022-11-21T06:54:45.718Z,19.30
2022-11-21T06:57:49.285Z,16.87
2022-11-21T07:00:54.837Z,17.63
2022-11-21T07:03:58.606Z,16.00
2022-11-21T07:07:02.591Z,15.67
2022-11-21T07:10:07.266Z,16.50
2022-11-21T07:13:25.118Z,16.37
2022-11-21T07:16:32.400Z,16.77
2022-11-21T07:19:40.636Z,17.77
2022-11-21T07:22:44.676Z,17.80
2022-11-21T07:25:49.569Z,16.57
2022-11-21T07:28:53.230Z,17.47
2022-11-21T07:31:58.434Z,17.77
2022-11-21T07:35:02.559Z,17.80
2022-11-21T07:38:06.473Z,17.40
2022-11-21T07:41:10.081Z,18.13
2022-11-21T07:44:13.723Z,16.40
2022-11-21T07:47:18.699Z,17.80
2022-11-21T07:50:22.282Z,18.60
2022-11-21T07:53:25.834Z,17.00
2022-11-21T07:56:29.457Z,18.43
2022-11-21T07:59:32.995Z,18.43
2022-11-21T08:02:38.036Z,18.00
2022-11-21T08:05:44.392Z,19.10
2022-11-21T08:08:51.793Z,18.90
2022-11-21T08:11:55.894Z,17.83
2022-11-21T08:14:59.529Z,18.67
2022-11-21T08:18:10.841Z,18.47
2022-11-21T08:21:19.508Z,20.37
2022-11-21T08:24:23.715Z,18.27
2022-11-21T08:27:27.383Z,17.90
2022-11-21T08:30:31.886Z,18.77
2022-11-21T08:33:36.914Z,19.60
2022-11-21T08:36:40.696Z,17.80
2022-11-21T08:39:44.318Z,18.30
2022-11-21T08:42:47.887Z,19.00
2022-11-21T08:45:51.955Z,19.37
2022-11-21T08:48:57.142Z,19.13
2022-11-21T08:52:00.710Z,19.63
2022-11-21T08:55:04.372Z,18.27
2022-11-21T08:58:07.957Z,18.87
2022-11-21T09:01:11.645Z,20.13
2022-11-21T09:04:16.660Z,20.00
2022-11-21T09:07:20.378Z,21.17
2022-11-21T09:10:23.977Z,19.53
2022-11-21T09:13:27.638Z,18.57
2022-11-21T09:16:48.855Z,20.10
2022-11-21T09:19:53.844Z,19.10
2022-11-21T09:22:57.634Z,19.70
2022-11-21T09:26:01.925Z,19.47
2022-11-21T09:29:06.011Z,18.83
2022-11-21T09:32:09.624Z,20.57
2022-11-21T09:35:14.683Z,19.67
2022-11-21T09:38:23.636Z,19.63
2022-11-21T09:41:53.992Z,18.73
2022-11-21T09:45:11.951Z,19.53
2022-11-21T09:48:24.983Z,18.97
2022-11-21T09:51:32.624Z,19.57
2022-11-21T09:54:45.078Z,18.23
2022-11-21T09:57:51.203Z,17.20
2022-11-21T10:00:55.697Z,17.73
2022-11-21T10:04:03.046Z,18.93
2022-11-21T10:07:15.260Z,17.40
2022-11-21T10:10:43.578Z,17.33
2022-11-21T10:14:07.595Z,16.70
2022-11-21T10:17:26.157Z,15.83
2022-11-21T10:20:50.034Z,15.87
2022-11-21T10:24:20.296Z,16.73
2022-11-21T10:27:36.387Z,16.00
2022-11-21T10:30:45.486Z,16.63
2022-11-21T10:33:52.835Z,15.90
2022-11-21T10:37:09.012Z,15.83
2022-11-21T10:40:35.078Z,16.20
2022-11-21T10:44:06.779Z,16.30
2022-11-21T10:47:27.366Z,16.67
2022-11-21T10:50:46.130Z,16.50
2022-11-21T10:54:22.316Z,16.73
2022-11-21T10:57:30.032Z,17.33
2022-11-21T11:00:34.978Z,15.87
2022-11-21T11:03:38.727Z,16.67
2022-11-21T11:06:46.394Z,15.53
2022-11-21T11:09:51.130Z,16.97
2022-11-21T11:13:44.736Z,17.13
2022-11-21T11:16:45.121Z,16.63
2022-11-21T11:20:05.462Z,16.03
2022-11-21T11:23:26.085Z,18.03
2022-11-21T11:26:31.990Z,16.63
2022-11-21T11:29:53.190Z,15.23
2022-11-21T11:32:57.228Z,16.53
2022-11-21T11:36:15.782Z,16.57
2022-11-21T11:39:28.879Z,16.70
2022-11-21T11:43:18.906Z,15.43
2022-11-21T11:47:01.504Z,16.40
2022-11-21T11:50:12.868Z,15.70
2022-11-21T11:53:22.348Z,15.60
2022-11-21T11:56:29.917Z,17.30
2022-11-21T11:59:41.167Z,16.47
2022-11-21T12:02:58.873Z,16.03
2022-11-21T12:06:09.682Z,14.80
2022-11-21T12:09:24.729Z,14.83
2022-11-21T12:12:40.770Z,14.43
2022-11-21T12:15:52.922Z,15.30
2022-11-21T12:19:10.183Z,14.23
2022-11-21T12:22:13.821Z,14.23
2022-11-21T12:25:19.949Z,14.43
2022-11-21T12:28:36.039Z,14.20
2022-11-21T12:31:59.582Z,13.57
2022-11-21T12:35:30.093Z,13.27
2022-11-21T12:39:09.574Z,12.33
2022-11-21T12:42:45.068Z,13.60
2022-11-21T12:45:58.727Z,13.27
2022-11-21T12:49:32.712Z,12.87
2022-11-21T12:53:05.184Z,13.33
2022-11-21T12:56:26.138Z,14.53
2022-11-21T12:59:39.069Z,16.40
2022-11-21T13:03:15.841Z,15.13
2022-11-21T13:06:27.261Z,12.70
2022-11-21T13:09:41.282Z,14.23
2022-11-21T13:12:53.102Z,18.40
2022-11-21T13:16:03.849Z,17.83
2022-11-21T13:19:26.395Z,16.40
2022-11-21T13:22:54.665Z,19.63
2022-11-21T13:26:00.290Z,16.57
2022-11-21T13:29:11.090Z,13.93
2022-11-21T13:32:39.665Z,14.67
2022-11-21T13:36:09.154Z,16.23
2022-11-21T13:39:38.725Z,14.80
2022-11-21T13:43:35.071Z,12.90
2022-11-21T13:47:03.311Z,13.30
2022-11-21T13:50:22.031Z,18.60
2022-11-21T13:54:06.287Z,13.90
2022-11-21T13:57:49.810Z,15.57
2022-11-21T14:01:36.162Z,17.97
2022-11-21T14:05:25.075Z,22.20
2022-11-21T14:08:30.988Z,16.90
2022-11-21T14:11:48.221Z,13.60
2022-11-21T14:15:09.432Z,13.67
2022-11-21T14:18:23.945Z,12.23
2022-11-21T14:21:31.414Z,14.43
2022-11-21T14:24:35.382Z,13.33
2022-11-21T14:27:45.525Z,13.40
2022-11-21T14:30:49.329Z,13.03
2022-11-21T14:33:58.743Z,12.70
2022-11-21T14:37:07.341Z,14.17
2022-11-21T14:40:15.782Z,13.53
2022-11-21T14:43:34.374Z,13.10
2022-11-21T14:46:40.817Z,13.03
2022-11-21T14:49:52.810Z,12.93
2022-11-21T14:53:00.799Z,13.90
2022-11-21T14:56:04.813Z,13.33
2022-11-21T14:59:23.408Z,13.53
2022-11-21T15:02:30.527Z,13.73
2022-11-21T15:12:39.432Z,12.93
2022-11-21T15:15:50.389Z,15.20
2022-11-21T15:18:54.144Z,14.97
2022-11-21T15:22:02.709Z,16.10
2022-11-21T15:25:18.327Z,14.37
2022-11-21T15:28:22.061Z,15.57
2022-11-21T15:31:25.743Z,16.23
2022-11-21T15:34:37.003Z,15.57
2022-11-21T15:37:51.236Z,17.03
2022-11-21T15:41:25.084Z,15.77
2022-11-21T15:44:29.038Z,16.33
2022-11-21T15:47:32.978Z,19.67
2022-11-21T15:50:38.030Z,15.83
2022-11-21T15:53:43.953Z,15.73
2022-11-21T15:56:48.090Z,17.30
2022-11-21T15:59:53.195Z,15.43
2022-11-21T16:02:56.995Z,17.37
2022-11-21T16:06:00.767Z,16.90
2022-11-21T16:09:06.486Z,16.30
2022-11-21T16:12:10.869Z,17.30
2022-11-21T16:15:14.498Z,16.07
2022-11-21T16:18:18.143Z,17.03
2022-11-21T16:21:21.763Z,17.50
2022-11-21T16:24:26.782Z,17.13
2022-11-21T16:27:30.413Z,17.37
2022-11-21T16:30:34.078Z,18.50
2022-11-21T16:33:41.254Z,19.27
2022-11-21T16:36:44.904Z,18.57
2022-11-21T16:39:52.200Z,18.50
2022-11-21T16:43:10.927Z,19.10
2022-11-21T16:46:14.552Z,22.00
2022-11-21T16:49:18.775Z,18.70
2022-11-21T16:52:22.451Z,18.67
2022-11-21T16:55:27.569Z,21.97
2022-11-21T16:58:31.177Z,20.50
2022-11-21T17:01:34.915Z,30.77
2022-11-21T17:04:38.797Z,24.33
2022-11-21T17:07:42.525Z,20.83
2022-11-21T17:10:47.619Z,19.80
2022-11-21T17:13:52.915Z,20.43
2022-11-21T17:16:56.439Z,20.40
2022-11-21T17:20:00.120Z,19.13
2022-11-21T17:23:03.912Z,19.47
2022-11-21T17:26:11.613Z,19.63
2022-11-21T17:29:15.220Z,21.50
2022-11-21T17:32:19.262Z,21.43
2022-11-21T17:35:22.842Z,21.27
2022-11-21T17:38:26.451Z,19.40
2022-11-21T17:41:31.483Z,20.10
2022-11-21T17:44:35.257Z,21.07
2022-11-21T17:47:38.918Z,24.27
2022-11-21T17:50:42.488Z,23.80
2022-11-21T17:53:49.246Z,24.33
2022-11-21T17:56:56.999Z,21.70
2022-11-21T18:00:00.865Z,20.27
2022-11-21T18:03:04.557Z,20.70
2022-11-21T18:06:11.733Z,21.43
2022-11-21T18:09:16.637Z,24.97
2022-11-21T18:12:21.960Z,22.67
2022-11-21T18:15:30.257Z,24.77
2022-11-21T18:18:35.954Z,23.43
2022-11-21T18:21:39.638Z,22.73
2022-11-21T18:24:43.195Z,21.53
2022-11-21T18:27:54.287Z,20.70
2022-11-21T18:31:07.485Z,24.37
2022-11-21T18:34:12.105Z,20.97
2022-11-21T18:37:15.766Z,18.87
2022-11-21T18:40:19.590Z,21.27
2022-11-21T18:43:24.757Z,24.20
2022-11-21T18:46:30.417Z,23.93
2022-11-21T18:49:34.116Z,21.30
2022-11-21T18:52:43.537Z,23.57
2022-11-21T18:55:49.839Z,22.63
2022-11-21T18:58:58.898Z,21.50
2022-11-21T19:02:03.146Z,26.27
2022-11-21T19:05:08.793Z,22.10
2022-11-21T19:08:12.714Z,20.70
2022-11-21T19:11:17.523Z,26.57
2022-11-21T19:14:22.506Z,21.53
2022-11-21T19:17:26.194Z,25.30
2022-11-21T19:20:29.802Z,23.23
2022-11-21T19:23:33.763Z,21.50
2022-11-21T19:26:37.538Z,22.40
2022-11-21T19:29:42.716Z,31.30
2022-11-21T19:32:46.463Z,28.40
2022-11-21T19:35:50.010Z,20.93
2022-11-21T19:38:53.820Z,18.10
2022-11-21T19:41:57.590Z,22.50
2022-11-21T19:45:02.575Z,32.13
2022-11-21T19:48:06.874Z,32.53
2022-11-21T19:51:11.308Z,29.07
2022-11-21T19:54:16.677Z,33.80
2022-11-21T19:57:20.953Z,35.30
2022-11-21T20:00:26.434Z,24.07
2022-11-21T20:03:30.315Z,20.10
2022-11-21T20:06:36.868Z,21.87
2022-11-21T20:09:40.863Z,17.47
2022-11-21T20:12:44.698Z,20.87
2022-11-21T20:15:49.799Z,20.53
2022-11-21T20:18:55.489Z,20.20
2022-11-21T20:21:59.092Z,19.53
2022-11-21T20:25:02.712Z,18.77
2022-11-21T20:28:11.461Z,19.13
2022-11-21T20:31:20.129Z,21.60
2022-11-21T20:34:23.786Z,20.70
2022-11-21T20:37:27.836Z,20.63
2022-11-21T20:40:31.624Z,21.90
2022-11-21T20:44:10.554Z,20.53
2022-11-21T20:47:00.519Z,21.27
2022-11-21T20:50:04.479Z,22.30
2022-11-21T20:56:34.843Z,17.20
2022-11-21T20:59:38.683Z,18.27
2022-11-21T21:02:43.599Z,17.80
2022-11-21T21:05:47.252Z,18.17
2022-11-21T21:08:51.312Z,17.80
2022-11-21T21:11:54.969Z,19.47
2022-11-21T21:14:58.699Z,20.70
2022-11-21T21:18:03.742Z,19.00
2022-11-21T21:21:16.936Z,20.20
2022-11-21T21:24:21.005Z,18.70
2022-11-21T21:27:24.877Z,18.20
2022-11-21T21:30:28.687Z,17.13
2022-11-21T21:33:33.796Z,17.80
2022-11-21T21:36:37.631Z,18.17
2022-11-21T21:39:41.381Z,18.77
2022-11-21T21:42:45.147Z,18.20
2022-11-21T21:45:48.723Z,17.80
2022-11-21T21:48:57.203Z,17.80
2022-11-21T21:52:00.934Z,17.80
2022-11-21T21:55:05.218Z,19.73
2022-11-21T21:58:08.928Z,19.73
2022-11-21T22:01:16.210Z,19.37
2022-11-21T22:04:21.397Z,20.70
2022-11-21T22:07:25.000Z,19.33
2022-11-21T22:10:28.897Z,19.10
2022-11-21T22:13:33.101Z,19.00
2022-11-21T22:16:36.777Z,19.20
2022-11-21T22:19:41.690Z,18.10
2022-11-21T22:22:45.278Z,17.93
2022-11-21T22:25:49.314Z,18.27
2022-11-21T22:28:52.973Z,18.57
2022-11-21T22:31:56.702Z,16.60
2022-11-21T22:35:01.715Z,16.90
2022-11-21T22:38:05.607Z,17.60
2022-11-21T22:41:15.923Z,17.73
2022-11-21T22:44:19.604Z,18.57
2022-11-21T22:47:23.222Z,19.63
2022-11-21T22:50:28.322Z,19.93
2022-11-21T22:53:35.667Z,15.53
2022-11-21T22:56:42.230Z,15.93
2022-11-21T22:59:45.887Z,14.43
2022-11-21T23:02:49.834Z,16.03
2022-11-21T23:06:02.459Z,16.03
2022-11-21T23:09:06.106Z,15.63
2022-11-21T23:12:09.690Z,14.90
2022-11-21T23:15:13.365Z,15.27
2022-11-21T23:18:17.001Z,15.37
2022-11-21T23:21:22.298Z,14.97
2022-11-21T23:24:25.898Z,14.93
2022-11-21T23:27:29.600Z,14.70
2022-11-21T23:30:33.179Z,13.33
2022-11-21T23:33:36.951Z,13.50
2022-11-21T23:36:41.943Z,14.60
2022-11-21T23:39:45.642Z,13.87
2022-11-21T23:42:49.328Z,13.63
2022-11-21T23:45:53.866Z,12.90
2022-11-21T23:48:57.603Z,12.77
2022-11-21T23:52:02.672Z,14.77
2022-11-21T23:55:07.520Z,14.53
2022-11-21T23:58:11.263Z,14.17
